Time;durP1;ratioP1;P1;durP2;ratioP2;P2;SDS_P1;SDS_P2;PMS_P1;PMS_P2;Temp;Humidity;BMP_temperature;BMP_pressure;BME280_temperature;BME280_humidity;BME280_pressure;Samples;Min_cycle;Max_cycle;Signal;HPM_P1;HPM_P2
2022/07/06 00:01:39;;;;;;;2.43;1.50;;;;;;;;;;5071880;28;20203;-48
2022/07/06 00:04:05;;;;;;;2.03;1.30;;;;;;;;;;5071697;28;20258;-49
2022/07/06 00:06:31;;;;;;;2.50;1.40;;;;;;;;;;5071996;28;20213;-48
2022/07/06 00:08:57;;;;;;;3.93;1.47;;;;;;;;;;5071844;28;20661;-49
2022/07/06 00:11:24;;;;;;;3.40;1.50;;;;;;;;;;5075105;28;20210;-49
2022/07/06 00:13:51;;;;;;;2.20;1.20;;;;;;;;;;5075383;28;20261;-49
2022/07/06 00:16:17;;;;;;;4.20;1.77;;;;;;;;;;5075634;28;20192;-50
2022/07/06 00:18:43;;;;;;;5.37;1.50;;;;;;;;;;5073820;28;20294;-51
2022/07/06 00:21:10;;;;;;;7.33;1.63;;;;;;;;;;5075547;28;20191;-50
2022/07/06 00:23:36;;;;;;;3.37;1.30;;;;;;;;;;5075690;28;20200;-50
2022/07/06 00:26:02;;;;;;;3.10;1.57;;;;;;;;;;5075449;28;20234;-50
2022/07/06 00:28:29;;;;;;;2.20;1.60;;;;;;;;;;5075707;28;20234;-49
2022/07/06 00:30:55;;;;;;;2.57;1.40;;;;;;;;;;5076115;28;20203;-49
2022/07/06 00:33:21;;;;;;;2.70;1.40;;;;;;;;;;5075299;28;20210;-51
2022/07/06 00:35:47;;;;;;;3.20;1.60;;;;;;;;;;5075751;28;20188;-49
2022/07/06 00:38:13;;;;;;;4.67;1.70;;;;;;;;;;5075233;28;20735;-48
2022/07/06 00:40:39;;;;;;;4.30;1.67;;;;;;;;;;5075259;28;20253;-48
2022/07/06 00:43:05;;;;;;;5.87;1.60;;;;;;;;;;5075055;28;20290;-48
2022/07/06 00:45:32;;;;;;;3.27;1.60;;;;;;;;;;5075092;28;20318;-49
2022/07/06 00:47:58;;;;;;;4.47;1.50;;;;;;;;;;5074956;28;20206;-49
2022/07/06 00:50:25;;;;;;;1.40;1.30;;;;;;;;;;5075002;28;20547;-50
2022/07/06 00:52:52;;;;;;;3.17;2.03;;;;;;;;;;5074995;28;20210;-49
2022/07/06 00:55:19;;;;;;;2.20;1.30;;;;;;;;;;5074940;28;20195;-49
2022/07/06 00:57:45;;;;;;;4.43;1.50;;;;;;;;;;5074917;28;20188;-49
2022/07/06 01:00:12;;;;;;;3.10;1.60;;;;;;;;;;5074633;28;20219;-49
2022/07/06 01:02:40;;;;;;;4.23;1.50;;;;;;;;;;5074803;28;20290;-49
2022/07/06 01:05:06;;;;;;;3.27;1.50;;;;;;;;;;5074538;28;20223;-49
2022/07/06 01:07:33;;;;;;;2.17;1.50;;;;;;;;;;5074924;28;20191;-49
2022/07/06 01:09:59;;;;;;;7.27;1.80;;;;;;;;;;5074728;28;20668;-49
2022/07/06 01:12:25;;;;;;;1.67;1.30;;;;;;;;;;5074578;28;20206;-50
2022/07/06 01:14:51;;;;;;;4.80;1.60;;;;;;;;;;5074699;28;20199;-50
2022/07/06 01:17:17;;;;;;;3.60;1.40;;;;;;;;;;5074638;28;20230;-50
2022/07/06 01:19:45;;;;;;;6.47;1.73;;;;;;;;;;5074375;28;20238;-48
2022/07/06 01:22:12;;;;;;;2.37;1.67;;;;;;;;;;5073472;28;20214;-49
2022/07/06 01:24:38;;;;;;;3.27;1.87;;;;;;;;;;5074395;28;20234;-48
2022/07/06 01:27:05;;;;;;;4.27;1.57;;;;;;;;;;5074310;28;20258;-50
2022/07/06 01:29:32;;;;;;;4.27;1.90;;;;;;;;;;5074413;28;20521;-49
2022/07/06 01:31:58;;;;;;;5.63;1.90;;;;;;;;;;5074171;28;20211;-49
2022/07/06 01:34:24;;;;;;;1.90;1.50;;;;;;;;;;5074122;28;20195;-49
2022/07/06 01:36:50;;;;;;;4.20;1.80;;;;;;;;;;5074330;28;20253;-49
2022/07/06 01:39:17;;;;;;;2.77;1.60;;;;;;;;;;5074196;28;20203;-49
2022/07/06 01:41:43;;;;;;;3.87;1.50;;;;;;;;;;5074140;28;20218;-49
2022/07/06 01:44:09;;;;;;;5.80;1.70;;;;;;;;;;5073868;28;20200;-49
2022/07/06 01:46:35;;;;;;;2.10;1.80;;;;;;;;;;5074069;28;20196;-48
2022/07/06 01:49:01;;;;;;;3.60;2.00;;;;;;;;;;5074061;28;20234;-49
2022/07/06 01:51:27;;;;;;;4.13;1.90;;;;;;;;;;5073909;28;20249;-49
2022/07/06 01:53:53;;;;;;;2.77;1.70;;;;;;;;;;5073950;28;20252;-49
2022/07/06 01:56:21;;;;;;;8.00;2.33;;;;;;;;;;5073768;28;20191;-49
2022/07/06 01:58:47;;;;;;;5.00;2.20;;;;;;;;;;5073845;28;20230;-50
2022/07/06 02:01:14;;;;;;;2.83;2.27;;;;;;;;;;5073532;28;20632;-49
2022/07/06 02:03:41;;;;;;;7.30;2.70;;;;;;;;;;5073639;28;20201;-49
2022/07/06 02:06:07;;;;;;;3.97;2.00;;;;;;;;;;5073411;28;20784;-50
2022/07/06 02:08:33;;;;;;;5.00;2.13;;;;;;;;;;5073560;28;20206;-49
2022/07/06 02:10:59;;;;;;;3.53;2.17;;;;;;;;;;5073364;28;20196;-49
2022/07/06 02:13:27;;;;;;;5.03;2.50;;;;;;;;;;5073218;28;20195;-49
2022/07/06 02:15:53;;;;;;;6.57;2.27;;;;;;;;;;5073223;28;20669;-50
2022/07/06 02:18:19;;;;;;;5.10;2.93;;;;;;;;;;5073155;28;20197;-49
2022/07/06 02:20:45;;;;;;;3.73;2.60;;;;;;;;;;5073049;28;20227;-49
2022/07/06 02:23:11;;;;;;;6.20;3.13;;;;;;;;;;5072913;28;20211;-49
2022/07/06 02:25:37;;;;;;;4.97;3.20;;;;;;;;;;5072957;28;20227;-49
2022/07/06 02:28:03;;;;;;;7.13;3.27;;;;;;;;;;5073096;28;20573;-49
2022/07/06 02:30:33;;;;;;;9.37;3.53;;;;;;;;;;5073101;28;20210;-49
2022/07/06 02:33:00;;;;;;;4.60;2.60;;;;;;;;;;5072876;28;20206;-49
2022/07/06 02:35:26;;;;;;;5.07;2.20;;;;;;;;;;5072708;28;20199;-50
2022/07/06 02:37:52;;;;;;;5.50;2.33;;;;;;;;;;5072813;28;20195;-48
2022/07/06 02:40:17;;;;;;;5.00;2.37;;;;;;;;;;5072735;28;20615;-48
2022/07/06 02:42:43;;;;;;;3.73;2.17;;;;;;;;;;5072757;28;20196;-48
2022/07/06 02:45:10;;;;;;;4.53;2.50;;;;;;;;;;5072551;28;20334;-48
2022/07/06 02:47:38;;;;;;;4.27;2.33;;;;;;;;;;5072473;28;20203;-48
2022/07/06 02:50:04;;;;;;;5.20;2.10;;;;;;;;;;5072653;28;20574;-48
2022/07/06 02:52:30;;;;;;;5.37;2.90;;;;;;;;;;5072493;28;20187;-48
2022/07/06 02:54:56;;;;;;;3.17;2.10;;;;;;;;;;5072797;28;20264;-48
2022/07/06 02:57:22;;;;;;;3.30;2.00;;;;;;;;;;5072338;28;20246;-49
2022/07/06 02:59:49;;;;;;;3.00;2.20;;;;;;;;;;5072431;28;20587;-49
2022/07/06 03:02:15;;;;;;;3.67;1.60;;;;;;;;;;5072257;28;20256;-49
2022/07/06 03:04:43;;;;;;;3.70;1.80;;;;;;;;;;5072154;28;20693;-50
2022/07/06 03:07:09;;;;;;;3.73;1.83;;;;;;;;;;5072261;28;20212;-49
2022/07/06 03:09:35;;;;;;;7.93;2.00;;;;;;;;;;5072273;28;20203;-49
2022/07/06 03:12:01;;;;;;;7.50;2.47;;;;;;;;;;5072324;28;20199;-49
2022/07/06 03:14:27;;;;;;;3.47;2.00;;;;;;;;;;5072108;28;20546;-49
2022/07/06 03:16:53;;;;;;;2.13;1.63;;;;;;;;;;5072433;28;20210;-49
2022/07/06 03:19:19;;;;;;;5.17;1.87;;;;;;;;;;5071947;28;20246;-49
2022/07/06 03:21:47;;;;;;;3.80;1.90;;;;;;;;;;5072220;28;20200;-49
2022/07/06 03:24:13;;;;;;;6.10;2.20;;;;;;;;;;5072227;28;20215;-49
2022/07/06 03:26:39;;;;;;;6.70;2.00;;;;;;;;;;5072082;28;20342;-49
2022/07/06 03:29:05;;;;;;;5.00;1.87;;;;;;;;;;5072044;28;20206;-48
2022/07/06 03:31:31;;;;;;;2.87;2.10;;;;;;;;;;5072017;28;20602;-49
2022/07/06 03:33:57;;;;;;;2.80;1.80;;;;;;;;;;5071884;28;20200;-49
2022/07/06 03:36:23;;;;;;;3.50;1.97;;;;;;;;;;5071911;28;20184;-49
2022/07/06 03:38:50;;;;;;;4.00;2.10;;;;;;;;;;5072073;28;20199;-49
2022/07/06 03:41:16;;;;;;;3.20;1.87;;;;;;;;;;5071928;28;20216;-49
2022/07/06 03:43:42;;;;;;;3.93;1.80;;;;;;;;;;5071870;28;20199;-49
2022/07/06 03:46:08;;;;;;;5.37;1.80;;;;;;;;;;5071252;28;20215;-49
2022/07/06 03:48:34;;;;;;;3.17;1.90;;;;;;;;;;5071663;28;20225;-49
2022/07/06 03:51:00;;;;;;;2.97;2.00;;;;;;;;;;5071946;28;20709;-49
2022/07/06 03:53:26;;;;;;;3.37;2.13;;;;;;;;;;5071616;28;20257;-49
2022/07/06 03:58:38;;;;;;;3.30;2.00;;;;;;;;;;5071706;28;20210;-49
2022/07/06 04:01:04;;;;;;;4.90;2.37;;;;;;;;;;5071696;28;20625;-49
2022/07/06 04:03:30;;;;;;;2.40;1.83;;;;;;;;;;5071581;28;20203;-50
2022/07/06 04:05:56;;;;;;;3.33;2.00;;;;;;;;;;5071514;28;20265;-49
2022/07/06 04:08:22;;;;;;;6.97;2.33;;;;;;;;;;5071553;28;20203;-49
2022/07/06 04:10:48;;;;;;;7.93;2.20;;;;;;;;;;5071757;28;20199;-49
2022/07/06 04:13:15;;;;;;;4.97;2.10;;;;;;;;;;5071517;28;20204;-49
2022/07/06 04:15:41;;;;;;;5.83;2.23;;;;;;;;;;5071621;28;20199;-49
2022/07/06 04:18:07;;;;;;;4.27;1.90;;;;;;;;;;5071483;28;20200;-49
2022/07/06 04:20:33;;;;;;;6.40;2.27;;;;;;;;;;5071345;28;20590;-49
2022/07/06 04:22:59;;;;;;;4.27;2.47;;;;;;;;;;5071566;28;20196;-49
2022/07/06 04:25:25;;;;;;;4.90;2.00;;;;;;;;;;5071266;28;20223;-49
2022/07/06 04:27:51;;;;;;;7.33;2.00;;;;;;;;;;5071501;28;20203;-49
2022/07/06 04:30:18;;;;;;;3.00;2.10;;;;;;;;;;5071442;28;20294;-49
2022/07/06 04:32:45;;;;;;;4.07;2.33;;;;;;;;;;5071363;28;20199;-49
2022/07/06 04:35:11;;;;;;;4.07;2.10;;;;;;;;;;5071335;28;20188;-48
2022/07/06 04:37:37;;;;;;;4.63;2.00;;;;;;;;;;5071393;28;20237;-48
2022/07/06 04:40:03;;;;;;;3.17;1.90;;;;;;;;;;5071384;28;20257;-48
2022/07/06 04:42:29;;;;;;;5.93;2.00;;;;;;;;;;5071126;28;20252;-48
2022/07/06 04:44:55;;;;;;;2.17;1.90;;;;;;;;;;5071420;28;20227;-49
2022/07/06 04:47:22;;;;;;;4.70;2.03;;;;;;;;;;5071141;28;20203;-49
2022/07/06 04:49:48;;;;;;;3.50;2.03;;;;;;;;;;5071479;28;20226;-49
2022/07/06 04:52:15;;;;;;;4.20;2.03;;;;;;;;;;5071162;28;20657;-48
2022/07/06 04:54:41;;;;;;;2.43;1.80;;;;;;;;;;5071260;28;20438;-49
2022/07/06 04:57:06;;;;;;;2.00;1.73;;;;;;;;;;5072415;28;20199;-49
2022/07/06 04:59:32;;;;;;;4.10;2.00;;;;;;;;;;5074704;28;20721;-49
2022/07/06 05:01:58;;;;;;;3.37;2.03;;;;;;;;;;5074606;28;20207;-49
2022/07/06 05:04:26;;;;;;;3.77;1.97;;;;;;;;;;5074458;28;20210;-48
2022/07/06 05:06:52;;;;;;;5.70;2.30;;;;;;;;;;5074562;28;20203;-49
2022/07/06 05:09:18;;;;;;;4.03;1.90;;;;;;;;;;5074557;28;20202;-49
2022/07/06 05:11:44;;;;;;;4.63;2.00;;;;;;;;;;5074426;28;20200;-49
2022/07/06 05:14:10;;;;;;;5.93;2.30;;;;;;;;;;5074392;28;20245;-48
2022/07/06 05:16:36;;;;;;;3.83;2.10;;;;;;;;;;5074164;28;20257;-49
2022/07/06 05:19:03;;;;;;;3.97;2.30;;;;;;;;;;5073943;28;20198;-48
2022/07/06 05:21:30;;;;;;;6.17;2.40;;;;;;;;;;5074146;28;20658;-49
2022/07/06 05:23:56;;;;;;;4.53;2.30;;;;;;;;;;5074293;28;20199;-49
2022/07/06 05:26:22;;;;;;;5.17;1.90;;;;;;;;;;5074047;28;20574;-49
2022/07/06 05:28:48;;;;;;;6.97;2.20;;;;;;;;;;5074226;28;20195;-49
2022/07/06 05:31:14;;;;;;;3.67;1.80;;;;;;;;;;5073926;28;20688;-50
2022/07/06 05:33:40;;;;;;;3.83;2.30;;;;;;;;;;5073983;28;20218;-50
2022/07/06 05:36:06;;;;;;;2.63;2.07;;;;;;;;;;5073553;28;20276;-48
2022/07/06 05:38:33;;;;;;;3.83;2.37;;;;;;;;;;5073873;28;20243;-48
2022/07/06 05:40:59;;;;;;;4.53;2.10;;;;;;;;;;5073890;28;20214;-48
2022/07/06 05:43:26;;;;;;;4.23;1.90;;;;;;;;;;5073764;28;20204;-49
2022/07/06 05:45:51;;;;;;;3.90;2.00;;;;;;;;;;5073688;28;20313;-49
2022/07/06 05:51:02;;;;;;;2.63;2.13;;;;;;;;;;5073819;28;20215;-48
2022/07/06 05:53:28;;;;;;;4.40;2.00;;;;;;;;;;5073523;28;20665;-47
2022/07/06 05:55:55;;;;;;;4.10;1.83;;;;;;;;;;5073473;28;20238;-47
2022/07/06 05:58:22;;;;;;;4.33;1.80;;;;;;;;;;5073477;28;20207;-47
2022/07/06 06:00:48;;;;;;;2.03;1.53;;;;;;;;;;5073559;28;20298;-47
2022/07/06 06:03:14;;;;;;;5.47;1.87;;;;;;;;;;5073193;28;20280;-48
2022/07/06 06:05:39;;;;;;;2.50;1.60;;;;;;;;;;5073369;28;20857;-48
2022/07/06 06:08:05;;;;;;;5.07;1.73;;;;;;;;;;5072732;28;20191;-48
2022/07/06 06:10:31;;;;;;;2.77;1.60;;;;;;;;;;5073192;28;20257;-48
2022/07/06 06:12:59;;;;;;;1.93;1.63;;;;;;;;;;5072993;28;20206;-49
2022/07/06 06:15:25;;;;;;;3.80;1.50;;;;;;;;;;5072769;28;20674;-49
2022/07/06 06:17:51;;;;;;;2.87;1.63;;;;;;;;;;5073016;28;20203;-49
2022/07/06 06:20:17;;;;;;;2.80;1.70;;;;;;;;;;5072817;28;20330;-49
2022/07/06 06:22:47;;;;;;;3.17;1.73;;;;;;;;;;5072955;28;20206;-49
2022/07/06 06:25:13;;;;;;;5.27;1.77;;;;;;;;;;5072983;28;20238;-49
2022/07/06 06:27:39;;;;;;;2.03;1.50;;;;;;;;;;5072831;28;20666;-49
2022/07/06 06:30:08;;;;;;;5.77;1.50;;;;;;;;;;5072762;28;20234;-48
2022/07/06 06:32:34;;;;;;;3.47;1.70;;;;;;;;;;5072761;28;20203;-49
2022/07/06 06:35:00;;;;;;;5.80;1.50;;;;;;;;;;5072838;28;20248;-48
2022/07/06 06:37:26;;;;;;;3.40;1.70;;;;;;;;;;5072723;28;20746;-49
2022/07/06 06:39:52;;;;;;;3.90;1.60;;;;;;;;;;5072869;28;20196;-49
2022/07/06 06:42:18;;;;;;;5.17;1.60;;;;;;;;;;5072846;28;20653;-49
2022/07/06 06:44:44;;;;;;;4.30;1.60;;;;;;;;;;5072438;28;20227;-48
2022/07/06 06:47:11;;;;;;;4.33;2.10;;;;;;;;;;5072459;28;20230;-48
2022/07/06 06:49:37;;;;;;;2.03;1.50;;;;;;;;;;5072544;28;20203;-48
2022/07/06 06:52:03;;;;;;;3.70;1.70;;;;;;;;;;5072611;28;20199;-49
2022/07/06 06:54:29;;;;;;;3.83;1.47;;;;;;;;;;5072475;28;20703;-49
2022/07/06 06:56:55;;;;;;;3.80;1.70;;;;;;;;;;5072498;28;20207;-49
2022/07/06 06:59:21;;;;;;;3.73;1.73;;;;;;;;;;5072322;28;20219;-49
2022/07/06 07:01:47;;;;;;;2.50;1.40;;;;;;;;;;5072388;28;20277;-49
2022/07/06 07:04:15;;;;;;;1.60;1.17;;;;;;;;;;5072058;28;20278;-48
2022/07/06 07:06:41;;;;;;;4.57;1.70;;;;;;;;;;5072072;28;20768;-49
2022/07/06 07:09:07;;;;;;;3.70;1.53;;;;;;;;;;5072327;28;20666;-48
2022/07/06 07:11:33;;;;;;;3.27;1.40;;;;;;;;;;5071993;28;20195;-49
2022/07/06 07:14:00;;;;;;;3.23;1.73;;;;;;;;;;5072183;28;20227;-50
2022/07/06 07:16:26;;;;;;;3.33;1.67;;;;;;;;;;5071940;28;20191;-50
2022/07/06 07:18:52;;;;;;;6.23;1.50;;;;;;;;;;5071542;28;20200;-49
2022/07/06 07:21:19;;;;;;;3.87;1.80;;;;;;;;;;5071604;28;20238;-49
2022/07/06 07:23:45;;;;;;;2.40;1.33;;;;;;;;;;5072060;28;20562;-50
2022/07/06 07:26:11;;;;;;;4.03;1.40;;;;;;;;;;5071907;28;20230;-50
2022/07/06 07:28:37;;;;;;;3.33;1.53;;;;;;;;;;5072049;28;20560;-49
2022/07/06 07:31:04;;;;;;;4.67;1.30;;;;;;;;;;5072157;28;20227;-49
2022/07/06 07:33:30;;;;;;;2.70;1.40;;;;;;;;;;5071933;28;20644;-49
2022/07/06 07:35:56;;;;;;;2.87;1.40;;;;;;;;;;5072001;28;20239;-49
2022/07/06 07:38:23;;;;;;;4.70;1.50;;;;;;;;;;5071882;28;20672;-49
2022/07/06 07:40:49;;;;;;;5.57;1.93;;;;;;;;;;5071922;28;20536;-48
2022/07/06 07:43:15;;;;;;;5.33;1.33;;;;;;;;;;5071879;28;20201;-47
2022/07/06 07:45:41;;;;;;;4.47;1.40;;;;;;;;;;5071783;28;20258;-47
2022/07/06 07:48:07;;;;;;;4.73;1.50;;;;;;;;;;5071802;28;20202;-47
2022/07/06 07:50:34;;;;;;;3.47;1.40;;;;;;;;;;5071780;28;20738;-49
2022/07/06 07:53:00;;;;;;;3.17;1.30;;;;;;;;;;5071815;28;20199;-51
2022/07/06 07:55:28;;;;;;;5.47;1.57;;;;;;;;;;5071657;28;20646;-52
2022/07/06 07:57:54;;;;;;;3.73;1.50;;;;;;;;;;5071795;28;20476;-50
2022/07/06 08:00:21;;;;;;;2.83;1.37;;;;;;;;;;5071551;28;20231;-50
2022/07/06 08:02:47;;;;;;;3.67;1.30;;;;;;;;;;5071483;28;20204;-50
2022/07/06 08:05:15;;;;;;;4.70;1.40;;;;;;;;;;5071564;28;20222;-47
2022/07/06 08:07:41;;;;;;;3.60;1.33;;;;;;;;;;5071597;28;20709;-51
2022/07/06 08:10:07;;;;;;;2.47;1.17;;;;;;;;;;5071660;28;20297;-50
2022/07/06 08:12:34;;;;;;;5.27;1.60;;;;;;;;;;5071782;28;20212;-50
2022/07/06 08:15:00;;;;;;;1.87;1.03;;;;;;;;;;5071487;28;20297;-51
2022/07/06 08:17:26;;;;;;;3.33;1.27;;;;;;;;;;5071349;28;20282;-50
2022/07/06 08:19:52;;;;;;;4.07;1.47;;;;;;;;;;5071153;28;20240;-50
2022/07/06 08:22:18;;;;;;;4.20;1.53;;;;;;;;;;5071436;28;20195;-51
2022/07/06 08:24:44;;;;;;;2.00;1.10;;;;;;;;;;5071261;28;20191;-50
2022/07/06 08:27:10;;;;;;;9.70;1.83;;;;;;;;;;5071279;28;20671;-49
2022/07/06 08:29:38;;;;;;;2.53;1.20;;;;;;;;;;5079164;28;20241;-49
2022/07/06 08:32:04;;;;;;;2.03;1.10;;;;;;;;;;5083856;28;20203;-50
2022/07/06 08:34:30;;;;;;;2.63;1.10;;;;;;;;;;5095629;28;20198;-50
2022/07/06 08:36:56;;;;;;;2.33;0.93;;;;;;;;;;5095434;28;20198;-49
2022/07/06 08:39:22;;;;;;;2.30;1.07;;;;;;;;;;5095167;28;20205;-50
2022/07/06 08:41:48;;;;;;;1.50;1.00;;;;;;;;;;5095454;28;20203;-50
2022/07/06 08:44:15;;;;;;;3.63;1.07;;;;;;;;;;5092539;28;20234;-50
2022/07/06 08:46:43;;;;;;;2.20;1.10;;;;;;;;;;5092124;28;20276;-50
2022/07/06 08:49:12;;;;;;;1.13;0.87;;;;;;;;;;5094987;28;20206;-51
2022/07/06 08:51:39;;;;;;;3.77;1.10;;;;;;;;;;5094816;28;20232;-50
2022/07/06 08:54:05;;;;;;;3.37;1.10;;;;;;;;;;5094993;28;20191;-51
2022/07/06 08:56:31;;;;;;;6.03;1.80;;;;;;;;;;5094775;28;20557;-50
2022/07/06 08:58:57;;;;;;;2.57;1.20;;;;;;;;;;5094723;28;20198;-51
2022/07/06 09:01:23;;;;;;;4.83;1.50;;;;;;;;;;5094467;28;20219;-51
2022/07/06 09:03:51;;;;;;;2.67;1.40;;;;;;;;;;5094860;28;20202;-49
2022/07/06 09:06:17;;;;;;;3.83;1.50;;;;;;;;;;5094685;28;20646;-49
2022/07/06 09:08:44;;;;;;;3.63;1.20;;;;;;;;;;5094528;28;20543;-49
2022/07/06 09:11:10;;;;;;;3.47;1.40;;;;;;;;;;5094670;28;20581;-50
2022/07/06 09:13:36;;;;;;;4.27;1.40;;;;;;;;;;5094493;28;20191;-49
2022/07/06 09:16:10;;;;;;;2.93;1.43;;;;;;;;;;5094589;28;20288;-50
2022/07/06 09:18:37;;;;;;;1.83;1.30;;;;;;;;;;5094360;28;20186;-49
2022/07/06 09:21:04;;;;;;;3.47;1.47;;;;;;;;;;5094331;28;20264;-52
2022/07/06 09:23:31;;;;;;;5.60;1.60;;;;;;;;;;5094402;28;20237;-51
2022/07/06 09:25:57;;;;;;;5.93;1.30;;;;;;;;;;5094251;28;20252;-50
2022/07/06 09:28:23;;;;;;;1.80;1.10;;;;;;;;;;5094277;28;20203;-50
2022/07/06 09:30:49;;;;;;;2.07;1.03;;;;;;;;;;5085348;28;20235;-50
2022/07/06 09:33:17;;;;;;;3.50;1.00;;;;;;;;;;5074881;28;20245;-49
2022/07/06 09:35:45;;;;;;;2.13;1.10;;;;;;;;;;5074252;28;20249;-50
2022/07/06 09:38:13;;;;;;;4.63;1.10;;;;;;;;;;5074140;28;20203;-50
2022/07/06 09:40:40;;;;;;;3.17;1.27;;;;;;;;;;5073988;28;20571;-50
2022/07/06 09:43:13;;;;;;;3.00;1.37;;;;;;;;;;5073412;28;20203;-49
2022/07/06 09:45:40;;;;;;;2.13;1.13;;;;;;;;;;5073803;28;20635;-50
2022/07/06 09:48:07;;;;;;;4.83;1.47;;;;;;;;;;5073999;28;20585;-50
2022/07/06 09:50:38;;;;;;;3.40;1.40;;;;;;;;;;5078685;28;20193;-50
2022/07/06 09:53:04;;;;;;;1.67;1.10;;;;;;;;;;5074037;28;20191;-51
2022/07/06 09:55:31;;;;;;;2.53;1.07;;;;;;;;;;5073831;28;20691;-50
2022/07/06 09:57:57;;;;;;;4.13;1.10;;;;;;;;;;5073900;28;20200;-51
2022/07/06 10:00:23;;;;;;;0.87;0.63;;;;;;;;;;5073655;28;20220;-50
2022/07/06 10:02:49;;;;;;;4.37;1.13;;;;;;;;;;5073771;28;20253;-52
2022/07/06 10:05:17;;;;;;;1.60;0.80;;;;;;;;;;5073611;28;20246;-49
2022/07/06 10:07:43;;;;;;;3.73;1.10;;;;;;;;;;5073466;28;20725;-49
2022/07/06 10:10:10;;;;;;;2.57;1.10;;;;;;;;;;5073397;28;20215;-49
2022/07/06 10:12:38;;;;;;;3.07;1.00;;;;;;;;;;5073288;28;20563;-50
2022/07/06 10:15:04;;;;;;;2.53;1.03;;;;;;;;;;5073438;28;20199;-50
2022/07/06 10:17:31;;;;;;;2.83;1.03;;;;;;;;;;5073080;28;20230;-50
2022/07/06 10:19:57;;;;;;;2.23;1.20;;;;;;;;;;5073314;28;20334;-50
2022/07/06 10:22:23;;;;;;;3.23;0.90;;;;;;;;;;5073322;28;20199;-50
2022/07/06 10:24:49;;;;;;;3.27;1.10;;;;;;;;;;5073425;28;20581;-51
2022/07/06 10:27:16;;;;;;;2.90;1.00;;;;;;;;;;5073219;28;20209;-50
2022/07/06 10:29:43;;;;;;;3.90;1.10;;;;;;;;;;5073283;28;20195;-50
2022/07/06 10:32:10;;;;;;;5.20;1.27;;;;;;;;;;5073109;28;20231;-50
2022/07/06 10:34:36;;;;;;;2.70;1.00;;;;;;;;;;5072953;28;20244;-50
2022/07/06 10:37:03;;;;;;;4.30;1.00;;;;;;;;;;5073220;28;20205;-51
2022/07/06 10:42:32;;;;;;;3.47;1.17;;;;;;;;;;5078189;28;20725;-50
2022/07/06 10:45:00;;;;;;;4.10;1.27;;;;;;;;;;5072587;28;20198;-51
2022/07/06 10:47:28;;;;;;;2.83;1.00;;;;;;;;;;5072731;28;20202;-50
2022/07/06 10:49:59;;;;;;;4.73;1.50;;;;;;;;;;5072531;28;20203;-50
2022/07/06 10:52:47;;;;;;;2.77;0.93;;;;;;;;;;5072562;28;20238;-49
2022/07/06 10:55:28;;;;;;;3.80;1.00;;;;;;;;;;5072726;28;20229;-49
2022/07/06 10:57:54;;;;;;;1.73;0.97;;;;;;;;;;5072555;28;20195;-50
2022/07/06 11:00:22;;;;;;;3.43;0.97;;;;;;;;;;5072136;28;20223;-50
2022/07/06 11:02:48;;;;;;;2.03;1.03;;;;;;;;;;5072412;28;20213;-50
2022/07/06 11:05:36;;;;;;;2.60;1.07;;;;;;;;;;5072007;28;20225;-50
2022/07/06 11:08:03;;;;;;;4.07;1.07;;;;;;;;;;5072147;28;20211;-50
2022/07/06 11:10:46;;;;;;;2.57;1.03;;;;;;;;;;5072129;28;20234;-50
2022/07/06 11:13:25;;;;;;;3.07;1.07;;;;;;;;;;5072525;28;20290;-51
2022/07/06 11:15:52;;;;;;;5.47;1.20;;;;;;;;;;5072233;28;20186;-51
2022/07/06 11:18:19;;;;;;;1.27;0.70;;;;;;;;;;5072102;28;20200;-50
2022/07/06 11:21:15;;;;;;;1.97;1.03;;;;;;;;;;5071983;28;20280;-51
2022/07/06 11:23:42;;;;;;;1.10;0.87;;;;;;;;;;5072012;28;20215;-50
2022/07/06 11:26:09;;;;;;;1.87;1.03;;;;;;;;;;5071935;28;20222;-50
2022/07/06 11:28:35;;;;;;;1.40;0.70;;;;;;;;;;5071859;28;20219;-50
2022/07/06 11:31:02;;;;;;;1.97;0.80;;;;;;;;;;5072107;28;20250;-50
2022/07/06 11:33:28;;;;;;;2.57;0.77;;;;;;;;;;5071718;28;20207;-50
2022/07/06 11:36:10;;;;;;;3.80;0.93;;;;;;;;;;5072146;28;20199;-50
2022/07/06 11:38:36;;;;;;;2.90;0.73;;;;;;;;;;5071901;28;20299;-50
2022/07/06 11:41:02;;;;;;;3.23;1.20;;;;;;;;;;5072105;28;20566;-50
2022/07/06 11:43:28;;;;;;;3.20;1.03;;;;;;;;;;5071867;28;20199;-50
2022/07/06 11:45:54;;;;;;;1.27;0.80;;;;;;;;;;5071882;28;20231;-51
2022/07/06 11:48:22;;;;;;;1.83;0.90;;;;;;;;;;5074193;28;20253;-51
2022/07/06 11:50:57;;;;;;;4.17;0.77;;;;;;;;;;5071849;28;20211;-52
2022/07/06 11:53:23;;;;;;;3.17;0.80;;;;;;;;;;5071855;28;20199;-51
2022/07/06 11:55:49;;;;;;;1.23;0.67;;;;;;;;;;5071847;28;20233;-51
2022/07/06 11:58:15;;;;;;;1.60;0.60;;;;;;;;;;5071633;28;20200;-51
2022/07/06 12:00:41;;;;;;;2.17;0.67;;;;;;;;;;5071456;28;20307;-51
2022/07/06 12:03:07;;;;;;;1.27;0.50;;;;;;;;;;5071899;28;20220;-50
2022/07/06 12:05:34;;;;;;;2.70;0.70;;;;;;;;;;5072290;28;20705;-51
2022/07/06 12:08:04;;;;;;;1.00;0.60;;;;;;;;;;5076054;28;20287;-51
2022/07/06 12:10:35;;;;;;;3.67;0.70;;;;;;;;;;5075763;28;20219;-51
2022/07/06 12:13:04;;;;;;;3.93;0.60;;;;;;;;;;5075900;28;20207;-51
2022/07/06 12:15:30;;;;;;;1.47;0.80;;;;;;;;;;5075706;28;20201;-50
2022/07/06 12:17:56;;;;;;;1.37;0.90;;;;;;;;;;5075851;28;20200;-50
2022/07/06 12:20:24;;;;;;;2.23;0.90;;;;;;;;;;5075494;28;20240;-49
2022/07/06 12:23:01;;;;;;;1.50;0.67;;;;;;;;;;5075749;28;20293;-49
2022/07/06 12:25:30;;;;;;;2.37;0.60;;;;;;;;;;5075524;28;20260;-49
2022/07/06 12:27:56;;;;;;;1.60;0.83;;;;;;;;;;5075569;28;20658;-49
2022/07/06 12:30:22;;;;;;;2.47;0.97;;;;;;;;;;5075326;28;20200;-50
2022/07/06 12:33:08;;;;;;;3.30;0.90;;;;;;;;;;5075624;28;20213;-53
2022/07/06 12:35:34;;;;;;;6.17;1.13;;;;;;;;;;5075270;28;20199;-52
2022/07/06 12:38:01;;;;;;;2.20;0.80;;;;;;;;;;5075471;28;20203;-51
2022/07/06 12:40:28;;;;;;;2.40;1.00;;;;;;;;;;5075036;28;20212;-51
2022/07/06 12:42:54;;;;;;;2.57;1.00;;;;;;;;;;5075200;28;20915;-50
2022/07/06 12:45:20;;;;;;;1.57;0.77;;;;;;;;;;5075036;28;20219;-51
2022/07/06 12:47:58;;;;;;;1.83;0.67;;;;;;;;;;5075257;28;20666;-50
2022/07/06 12:50:31;;;;;;;2.03;1.10;;;;;;;;;;5074866;28;20259;-50
2022/07/06 12:52:57;;;;;;;3.73;1.00;;;;;;;;;;5075094;28;20229;-50
2022/07/06 12:55:27;;;;;;;1.23;0.80;;;;;;;;;;5074808;28;20204;-50
2022/07/06 12:57:54;;;;;;;1.20;0.73;;;;;;;;;;5074866;28;20353;-50
2022/07/06 13:00:21;;;;;;;1.63;0.70;;;;;;;;;;5074757;28;20255;-50
2022/07/06 13:02:48;;;;;;;4.13;0.80;;;;;;;;;;5074966;28;20201;-50
2022/07/06 13:05:15;;;;;;;1.33;0.90;;;;;;;;;;5074829;28;20220;-50
2022/07/06 13:07:45;;;;;;;2.40;0.80;;;;;;;;;;5074799;28;20606;-50
2022/07/06 13:10:11;;;;;;;2.17;0.70;;;;;;;;;;5073098;28;20363;-50
2022/07/06 13:12:39;;;;;;;2.57;1.00;;;;;;;;;;5074677;28;20225;-50
2022/07/06 13:15:06;;;;;;;1.40;0.80;;;;;;;;;;5074508;28;20198;-49
2022/07/06 13:17:32;;;;;;;1.73;0.63;;;;;;;;;;5073334;28;20585;-49
2022/07/06 13:19:58;;;;;;;3.90;1.07;;;;;;;;;;5074314;28;20282;-50
2022/07/06 13:22:24;;;;;;;2.13;0.90;;;;;;;;;;5074505;28;20287;-51
2022/07/06 13:24:50;;;;;;;1.60;0.70;;;;;;;;;;5074556;28;20285;-49
2022/07/06 13:27:16;;;;;;;1.67;1.27;;;;;;;;;;5074366;28;20240;-48
2022/07/06 13:29:44;;;;;;;1.87;1.03;;;;;;;;;;5074326;28;20206;-49
2022/07/06 13:32:10;;;;;;;3.03;0.67;;;;;;;;;;5074296;28;20208;-50
2022/07/06 13:34:36;;;;;;;4.90;0.90;;;;;;;;;;5074149;28;20197;-50
2022/07/06 13:37:02;;;;;;;3.03;0.77;;;;;;;;;;5074446;28;20193;-50
2022/07/06 13:39:28;;;;;;;2.00;0.83;;;;;;;;;;5074217;28;20208;-51
2022/07/06 13:41:54;;;;;;;1.70;0.60;;;;;;;;;;5074278;28;20287;-50
2022/07/06 13:44:21;;;;;;;2.20;0.60;;;;;;;;;;5074070;28;20205;-50
2022/07/06 13:46:48;;;;;;;2.53;0.60;;;;;;;;;;5073888;28;20236;-50
2022/07/06 13:49:14;;;;;;;4.33;0.90;;;;;;;;;;5074112;28;20295;-50
2022/07/06 13:51:41;;;;;;;3.00;0.80;;;;;;;;;;5074008;28;20216;-51
2022/07/06 13:54:07;;;;;;;3.60;0.90;;;;;;;;;;5073975;28;20287;-50
2022/07/06 13:56:33;;;;;;;2.27;0.93;;;;;;;;;;5073804;28;20608;-50
2022/07/06 13:58:59;;;;;;;1.27;0.73;;;;;;;;;;5073878;28;20239;-51
2022/07/06 14:01:26;;;;;;;2.90;0.70;;;;;;;;;;5072217;28;20270;-51
2022/07/06 14:03:53;;;;;;;1.63;0.90;;;;;;;;;;5073277;28;20197;-51
2022/07/06 14:06:19;;;;;;;1.63;0.90;;;;;;;;;;5073370;28;20227;-50
2022/07/06 14:08:45;;;;;;;2.57;1.00;;;;;;;;;;5073214;28;20204;-51
2022/07/06 14:11:12;;;;;;;1.33;0.70;;;;;;;;;;5073211;28;20202;-51
2022/07/06 14:13:38;;;;;;;1.30;0.60;;;;;;;;;;5072959;28;20229;-51
2022/07/06 14:16:04;;;;;;;1.57;0.70;;;;;;;;;;5073223;28;20229;-52
2022/07/06 14:18:30;;;;;;;1.60;0.73;;;;;;;;;;5072910;28;20190;-51
2022/07/06 14:20:57;;;;;;;1.40;0.63;;;;;;;;;;5073280;28;20230;-51
2022/07/06 14:23:24;;;;;;;2.80;0.80;;;;;;;;;;5073368;28;20214;-51
2022/07/06 14:25:50;;;;;;;1.07;0.73;;;;;;;;;;5073400;28;20230;-52
2022/07/06 14:28:16;;;;;;;0.83;0.70;;;;;;;;;;5073180;28;20246;-50
2022/07/06 14:30:44;;;;;;;2.73;1.00;;;;;;;;;;5073098;28;20217;-52
2022/07/06 14:33:10;;;;;;;2.27;0.33;;;;;;;;;;5072886;28;20225;-52
2022/07/06 14:35:37;;;;;;;2.40;1.10;;;;;;;;;;5072888;28;20634;-53
2022/07/06 14:38:04;;;;;;;1.47;0.60;;;;;;;;;;5073200;28;20206;-51
2022/07/06 14:40:31;;;;;;;1.80;0.90;;;;;;;;;;5072945;28;20255;-51
2022/07/06 14:42:57;;;;;;;1.90;0.90;;;;;;;;;;5073001;28;20194;-52
2022/07/06 14:45:23;;;;;;;4.13;0.80;;;;;;;;;;5072700;28;20224;-51
2022/07/06 14:47:50;;;;;;;2.23;0.80;;;;;;;;;;5072924;28;20216;-51
2022/07/06 14:50:16;;;;;;;3.43;0.80;;;;;;;;;;5072984;28;20204;-52